Pacific Titan — WCZ6844 — position and weather

sailwx.info

Track history (hours):
 
Tides and Currents Weather Stations Pressure Air Temp Water Temp Dewpoint Dewpoint Depression Visibility Wind Speed Wind Dir Waves Ship Positions

Pacific Titan

Owner: WESTERN TOWBOAT CO, SEATTLE, WA. More information available from US FCC via Universal Licensing System and Coast Guard Vessel Documentation Center.

Last reported at 2015-Jun-29 00:33 UTC. Time now 2015-Jul-01 21:11 UTC.
Position N 52°15' W 128°46'.

Type: Tow > 200 m length. MMSI: 338855000.

Date/timePositionNaut miles runAvg speedWind from/ knotsBaromVisibWave heightAir tempDewpointWater temp
2015-Jun-29 00:33N 52°15' W 128°46'9 8.7
2015-Jun-28 23:30N 52°06' W 128°41'17 8.9
2015-Jun-28 21:34N 51°50' W 128°32'11 8.8
2015-Jun-28 20:18N 51°40' W 128°23'7 9.0
2015-Jun-28 19:33N 51°34' W 128°17'9 8.8
2015-Jun-28 18:32N 51°27' W 128°09'9 8.8
2015-Jun-28 17:32N 51°22' W 127°58'9 9.3
2015-Jun-28 16:34N 51°13' W 127°52'49 9.4
2015-Jun-28 11:24N 50°41' W 126°54'1410.2
2015-Jun-28 10:03N 50°31' W 126°39'107 7.2
2015-Jun-27 19:18N 49°33' W 124°19'7 9.4
2015-Jun-27 18:34N 49°30' W 124°10'9 8.6
2015-Jun-27 17:33N 49°25' W 123°59'8 7.9
2015-Jun-27 16:33N 49°20' W 123°50'8 7.9
2015-Jun-27 15:33N 49°15' W 123°40'8 7.9
2015-Jun-27 14:34N 49°10' W 123°30'8 7.7
2015-Jun-27 13:33N 49°05' W 123°22'8 7.6
2015-Jun-27 12:34N 48°60' W 123°14'8 8.4
2015-Jun-27 11:34N 48°54' W 123°04'8 8.5
2015-Jun-27 10:34N 48°49' W 122°54'9 8.9
2015-Jun-27 09:33N 48°43' W 122°44'9 9.1
2015-Jun-27 08:33N 48°34' W 122°45'1010.1
2015-Jun-27 07:33N 48°24' W 122°44'10 9.5
2015-Jun-27 06:32N 48°14' W 122°48'10 7.6
2015-Jun-27 05:15N 48°07' W 122°39'8 8.7
2015-Jun-27 04:23N 47°59' W 122°35'7 8.9
2015-Jun-27 03:33N 47°54' W 122°28'9 9.5
2015-Jun-27 02:34N 47°45' W 122°26'9 8.4
2015-Jun-27 01:32N 47°36' W 122°23'2 0.8
2015-Jun-26 22:35N 47°34' W 122°21'0 6.9
2015-Jun-26 22:33N 47°34' W 122°21'0 6.1
2015-Jun-26 22:30N 47°35' W 122°22'5 5.8
2015-Jun-26 21:33N 47°40' W 122°24'0 0.6
2015-Jun-26 21:29N 47°40' W 122°24'0 0.2
2015-Jun-26 20:33N 47°40' W 122°24'0 0.6
2015-Jun-26 20:29N 47°40' W 122°24'1 1.4
2015-Jun-26 19:33N 47°39' W 122°22'0 0.0
2015-Jun-26 19:29N 47°39' W 122°22'0 0.0
2015-Jun-26 18:31N 47°39' W 122°22'0 0.0
2015-Jun-26 18:28N 47°39' W 122°22'0 0.0
2015-Jun-26 17:33N 47°39' W 122°22'0 0.0
2015-Jun-26 17:32N 47°39' W 122°22'0 0.0
2015-Jun-26 16:32N 47°39' W 122°22'0 0.0
2015-Jun-26 16:32N 47°39' W 122°22'0 0.0
2015-Jun-26 15:34N 47°39' W 122°22'0 0.0
2015-Jun-26 15:32N 47°39' W 122°22'0 0.0
2015-Jun-26 14:33N 47°39' W 122°22'0 0.0
2015-Jun-26 14:32N 47°39' W 122°22'0 0.0
2015-Jun-26 13:33N 47°39' W 122°22'0 0.0
2015-Jun-26 13:31N 47°39' W 122°22'0 0.0
2015-Jun-26 12:26N 47°39' W 122°22'0 0.0
2015-Jun-26 12:24N 47°39' W 122°22'0 0.0
2015-Jun-26 11:33N 47°39' W 122°22'0 0.0
2015-Jun-26 11:33N 47°39' W 122°22'0 0.0
2015-Jun-26 10:29N 47°39' W 122°22'0 0.0
2015-Jun-26 10:27N 47°39' W 122°22'0 0.0
2015-Jun-26 09:33N 47°39' W 122°22'0 0.0
2015-Jun-26 09:31N 47°39' W 122°22'0 0.0
2015-Jun-26 08:33N 47°39' W 122°22'0 0.0
2015-Jun-26 08:31N 47°39' W 122°22'0 0.0
2015-Jun-26 07:33N 47°39' W 122°22'0 0.0
2015-Jun-26 07:30N 47°39' W 122°22'0 0.0
2015-Jun-26 06:33N 47°39' W 122°22'0 0.0
2015-Jun-26 06:03N 47°39' W 122°22'0 0.0
2015-Jun-26 05:30N 47°39' W 122°22'0 0.0
2015-Jun-26 04:33N 47°39' W 122°22'0 0.0
2015-Jun-26 04:32N 47°39' W 122°22'0 0.0
2015-Jun-26 03:33N 47°39' W 122°22'0 0.0
2015-Jun-26 03:31N 47°39' W 122°22'0 0.0
2015-Jun-26 02:33N 47°39' W 122°22'0 0.1
2015-Jun-26 02:31N 47°39' W 122°22'0 0.0
2015-Jun-26 01:34N 47°39' W 122°22'0 0.0
2015-Jun-26 01:29N 47°39' W 122°22'0 0.0
2015-Jun-26 00:33N 47°39' W 122°22'0 0.0
2015-Jun-26 00:29N 47°39' W 122°22'0 0.0
2015-Jun-25 23:29N 47°39' W 122°22'0 0.0
2015-Jun-25 23:18N 47°39' W 122°22'0 0.0
2015-Jun-25 22:32N 47°39' W 122°22'0 0.0
2015-Jun-25 22:32N 47°39' W 122°22'0 0.0
2015-Jun-25 21:34N 47°39' W 122°22'0 0.2
2015-Jun-25 21:32N 47°39' W 122°22'0 0.0
2015-Jun-25 20:34N 47°39' W 122°22'0 0.0
2015-Jun-25 20:30N 47°39' W 122°22'0 0.0
2015-Jun-25 19:34N 47°39' W 122°22'0 0.0
2015-Jun-25 19:33N 47°39' W 122°22'0 0.0
2015-Jun-23 20:50N 47°39' W 122°22'0 0.0
2015-Jun-23 20:33N 47°39' W 122°22'0 0.0
2015-Jun-23 20:29N 47°39' W 122°22'0 0.0
2015-Jun-23 19:33N 47°39' W 122°22'0 0.0
2015-Jun-23 19:30N 47°39' W 122°22'0 0.0
2015-Jun-23 19:05N 47°39' W 122°22'0 0.0
2015-Jun-23 19:05N 47°39' W 122°22'52 2.2
2015-Jun-22 19:33N 48°29' W 122°45'1111.1
2015-Jun-22 18:33N 48°40' W 122°44'1010.2
2015-Jun-22 17:33N 48°48' W 122°55'1110.8
2015-Jun-22 16:34N 48°54' W 123°08'1110.6
2015-Jun-22 15:33N 49°01' W 123°20'10 9.6
2015-Jun-22 14:33N 49°08' W 123°31'10 9.6
2015-Jun-22 13:33N 49°14' W 123°42'10 9.7
2015-Jun-22 12:30N 49°20' W 123°54'9 9.9
2015-Jun-22 11:34N 49°27' W 124°05'10 9.8
2015-Jun-22 10:33N 49°32' W 124°17'10 9.5
2015-Jun-22 09:31N 49°37' W 124°30'21 9.4
2015-Jun-22 07:20N 49°50' W 124°56'59 9.6
2015-Jun-22 01:08N 50°28' W 126°07'610.7
2015-Jun-22 00:33N 50°29' W 126°16'1110.7
2015-Jun-21 23:33N 50°30' W 126°33'1010.1
2015-Jun-21 22:32N 50°37' W 126°46'1110.8
2015-Jun-21 21:32N 50°43' W 126°60'1010.3
2015-Jun-21 20:33N 50°48' W 127°13'1010.3
2015-Jun-21 19:33N 50°55' W 127°25'9 8.9
2015-Jun-21 18:33N 51°00' W 127°36'9 8.5
2015-Jun-21 17:33N 51°06' W 127°46'12 9.4
2015-Jun-21 16:14N 51°17' W 127°55'7 9.5
2015-Jun-21 15:28N 51°24' W 128°01'  
Track history (hours):
 
Tides and Currents Weather Stations Pressure Air Temp Water Temp Dewpoint Dewpoint Depression Visibility Wind Speed Wind Dir Waves Ship Positions

Pacific Titan

Owner: WESTERN TOWBOAT CO, SEATTLE, WA. More information available from US FCC via Universal Licensing System and Coast Guard Vessel Documentation Center.

Last reported at 2015-Jun-29 00:33 UTC. Time now 2015-Jul-01 21:11 UTC.
Position N 52°15' W 128°46'.

Type: Tow > 200 m length. MMSI: 338855000.

Date/timePositionNaut miles runAvg speedWind from/ knotsBaromVisibWave heightAir tempDewpointWater temp
2015-Jun-29 00:33N 52°15' W 128°46'9 8.7
2015-Jun-28 23:30N 52°06' W 128°41'17 8.9
2015-Jun-28 21:34N 51°50' W 128°32'11 8.8
2015-Jun-28 20:18N 51°40' W 128°23'7 9.0
2015-Jun-28 19:33N 51°34' W 128°17'9 8.8
2015-Jun-28 18:32N 51°27' W 128°09'9 8.8
2015-Jun-28 17:32N 51°22' W 127°58'9 9.3
2015-Jun-28 16:34N 51°13' W 127°52'49 9.4
2015-Jun-28 11:24N 50°41' W 126°54'1410.2
2015-Jun-28 10:03N 50°31' W 126°39'107 7.2
2015-Jun-27 19:18N 49°33' W 124°19'7 9.4
2015-Jun-27 18:34N 49°30' W 124°10'9 8.6
2015-Jun-27 17:33N 49°25' W 123°59'8 7.9
2015-Jun-27 16:33N 49°20' W 123°50'8 7.9
2015-Jun-27 15:33N 49°15' W 123°40'8 7.9
2015-Jun-27 14:34N 49°10' W 123°30'8 7.7
2015-Jun-27 13:33N 49°05' W 123°22'8 7.6
2015-Jun-27 12:34N 48°60' W 123°14'8 8.4
2015-Jun-27 11:34N 48°54' W 123°04'8 8.5
2015-Jun-27 10:34N 48°49' W 122°54'9 8.9
2015-Jun-27 09:33N 48°43' W 122°44'9 9.1
2015-Jun-27 08:33N 48°34' W 122°45'1010.1
2015-Jun-27 07:33N 48°24' W 122°44'10 9.5
2015-Jun-27 06:32N 48°14' W 122°48'10 7.6
2015-Jun-27 05:15N 48°07' W 122°39'8 8.7
2015-Jun-27 04:23N 47°59' W 122°35'7 8.9
2015-Jun-27 03:33N 47°54' W 122°28'9 9.5
2015-Jun-27 02:34N 47°45' W 122°26'9 8.4
2015-Jun-27 01:32N 47°36' W 122°23'2 0.8
2015-Jun-26 22:35N 47°34' W 122°21'0 6.9
2015-Jun-26 22:33N 47°34' W 122°21'0 6.1
2015-Jun-26 22:30N 47°35' W 122°22'5 5.8
2015-Jun-26 21:33N 47°40' W 122°24'0 0.6
2015-Jun-26 21:29N 47°40' W 122°24'0 0.2
2015-Jun-26 20:33N 47°40' W 122°24'0 0.6
2015-Jun-26 20:29N 47°40' W 122°24'1 1.4
2015-Jun-26 19:33N 47°39' W 122°22'0 0.0
2015-Jun-26 19:29N 47°39' W 122°22'0 0.0
2015-Jun-26 18:31N 47°39' W 122°22'0 0.0
2015-Jun-26 18:28N 47°39' W 122°22'0 0.0
2015-Jun-26 17:33N 47°39' W 122°22'0 0.0
2015-Jun-26 17:32N 47°39' W 122°22'0 0.0
2015-Jun-26 16:32N 47°39' W 122°22'0 0.0
2015-Jun-26 16:32N 47°39' W 122°22'0 0.0
2015-Jun-26 15:34N 47°39' W 122°22'0 0.0
2015-Jun-26 15:32N 47°39' W 122°22'0 0.0
2015-Jun-26 14:33N 47°39' W 122°22'0 0.0
2015-Jun-26 14:32N 47°39' W 122°22'0 0.0
2015-Jun-26 13:33N 47°39' W 122°22'0 0.0
2015-Jun-26 13:31N 47°39' W 122°22'0 0.0
2015-Jun-26 12:26N 47°39' W 122°22'0 0.0
2015-Jun-26 12:24N 47°39' W 122°22'0 0.0
2015-Jun-26 11:33N 47°39' W 122°22'0 0.0
2015-Jun-26 11:33N 47°39' W 122°22'0 0.0
2015-Jun-26 10:29N 47°39' W 122°22'0 0.0
2015-Jun-26 10:27N 47°39' W 122°22'0 0.0
2015-Jun-26 09:33N 47°39' W 122°22'0 0.0
2015-Jun-26 09:31N 47°39' W 122°22'0 0.0
2015-Jun-26 08:33N 47°39' W 122°22'0 0.0
2015-Jun-26 08:31N 47°39' W 122°22'0 0.0
2015-Jun-26 07:33N 47°39' W 122°22'0 0.0
2015-Jun-26 07:30N 47°39' W 122°22'0 0.0
2015-Jun-26 06:33N 47°39' W 122°22'0 0.0
2015-Jun-26 06:03N 47°39' W 122°22'0 0.0
2015-Jun-26 05:30N 47°39' W 122°22'0 0.0
2015-Jun-26 04:33N 47°39' W 122°22'0 0.0
2015-Jun-26 04:32N 47°39' W 122°22'0 0.0
2015-Jun-26 03:33N 47°39' W 122°22'0 0.0
2015-Jun-26 03:31N 47°39' W 122°22'0 0.0
2015-Jun-26 02:33N 47°39' W 122°22'0 0.1
2015-Jun-26 02:31N 47°39' W 122°22'0 0.0
2015-Jun-26 01:34N 47°39' W 122°22'0 0.0
2015-Jun-26 01:29N 47°39' W 122°22'0 0.0
2015-Jun-26 00:33N 47°39' W 122°22'0 0.0
2015-Jun-26 00:29N 47°39' W 122°22'0 0.0
2015-Jun-25 23:29N 47°39' W 122°22'0 0.0
2015-Jun-25 23:18N 47°39' W 122°22'0 0.0
2015-Jun-25 22:32N 47°39' W 122°22'0 0.0
2015-Jun-25 22:32N 47°39' W 122°22'0 0.0
2015-Jun-25 21:34N 47°39' W 122°22'0 0.2
2015-Jun-25 21:32N 47°39' W 122°22'0 0.0
2015-Jun-25 20:34N 47°39' W 122°22'0 0.0
2015-Jun-25 20:30N 47°39' W 122°22'0 0.0
2015-Jun-25 19:34N 47°39' W 122°22'0 0.0
2015-Jun-25 19:33N 47°39' W 122°22'0 0.0
2015-Jun-23 20:50N 47°39' W 122°22'0 0.0
2015-Jun-23 20:33N 47°39' W 122°22'0 0.0
2015-Jun-23 20:29N 47°39' W 122°22'0 0.0
2015-Jun-23 19:33N 47°39' W 122°22'0 0.0
2015-Jun-23 19:30N 47°39' W 122°22'0 0.0
2015-Jun-23 19:05N 47°39' W 122°22'0 0.0
2015-Jun-23 19:05N 47°39' W 122°22'52 2.2
2015-Jun-22 19:33N 48°29' W 122°45'1111.1
2015-Jun-22 18:33N 48°40' W 122°44'1010.2
2015-Jun-22 17:33N 48°48' W 122°55'1110.8
2015-Jun-22 16:34N 48°54' W 123°08'1110.6
2015-Jun-22 15:33N 49°01' W 123°20'10 9.6
2015-Jun-22 14:33N 49°08' W 123°31'10 9.6
2015-Jun-22 13:33N 49°14' W 123°42'10 9.7
2015-Jun-22 12:30N 49°20' W 123°54'9 9.9
2015-Jun-22 11:34N 49°27' W 124°05'10 9.8
2015-Jun-22 10:33N 49°32' W 124°17'10 9.5
2015-Jun-22 09:31N 49°37' W 124°30'21 9.4
2015-Jun-22 07:20N 49°50' W 124°56'59 9.6
2015-Jun-22 01:08N 50°28' W 126°07'610.7
2015-Jun-22 00:33N 50°29' W 126°16'1110.7
2015-Jun-21 23:33N 50°30' W 126°33'1010.1
2015-Jun-21 22:32N 50°37' W 126°46'1110.8
2015-Jun-21 21:32N 50°43' W 126°60'1010.3
2015-Jun-21 20:33N 50°48' W 127°13'1010.3
2015-Jun-21 19:33N 50°55' W 127°25'9 8.9
2015-Jun-21 18:33N 51°00' W 127°36'9 8.5
2015-Jun-21 17:33N 51°06' W 127°46'12 9.4
2015-Jun-21 16:14N 51°17' W 127°55'7 9.5
2015-Jun-21 15:28N 51°24' W 128°01'  

Dump ship's entire track history